sensor_id;sensor_type;location;lat;lon;timestamp;temperature;humidity
8180;DHT22;4131;48.810;11.892;2023-04-03T00:01:20;2.60;99.90
8180;DHT22;4131;48.810;11.892;2023-04-03T00:03:48;2.60;99.90
8180;DHT22;4131;48.810;11.892;2023-04-03T00:06:17;2.60;99.90
8180;DHT22;4131;48.810;11.892;2023-04-03T00:08:45;2.60;99.90
8180;DHT22;4131;48.810;11.892;2023-04-03T00:11:13;2.60;99.90
8180;DHT22;4131;48.810;11.892;2023-04-03T00:13:43;2.60;99.90
8180;DHT22;4131;48.810;11.892;2023-04-03T00:16:11;2.60;99.90
8180;DHT22;4131;48.810;11.892;2023-04-03T00:18:40;2.60;99.90
8180;DHT22;4131;48.810;11.892;2023-04-03T00:21:09;2.60;99.90
8180;DHT22;4131;48.810;11.892;2023-04-03T00:23:37;2.60;99.90
8180;DHT22;4131;48.810;11.892;2023-04-03T00:26:06;2.60;99.90
8180;DHT22;4131;48.810;11.892;2023-04-03T00:28:34;2.60;99.90
8180;DHT22;4131;48.810;11.892;2023-04-03T00:31:03;2.60;99.90
8180;DHT22;4131;48.810;11.892;2023-04-03T00:33:32;2.60;99.90
8180;DHT22;4131;48.810;11.892;2023-04-03T00:36:05;2.60;99.90
8180;DHT22;4131;48.810;11.892;2023-04-03T00:38:33;2.60;99.90
8180;DHT22;4131;48.810;11.892;2023-04-03T00:41:02;2.50;99.90
8180;DHT22;4131;48.810;11.892;2023-04-03T00:43:30;2.60;99.90
8180;DHT22;4131;48.810;11.892;2023-04-03T00:45:59;2.60;99.90
8180;DHT22;4131;48.810;11.892;2023-04-03T00:48:31;2.50;99.90
8180;DHT22;4131;48.810;11.892;2023-04-03T00:51:01;2.60;99.90
8180;DHT22;4131;48.810;11.892;2023-04-03T00:53:32;2.60;99.90
8180;DHT22;4131;48.810;11.892;2023-04-03T00:56:01;2.60;99.90
8180;DHT22;4131;48.810;11.892;2023-04-03T00:58:35;2.60;99.90
8180;DHT22;4131;48.810;11.892;2023-04-03T01:01:08;2.50;99.90
8180;DHT22;4131;48.810;11.892;2023-04-03T01:03:39;2.50;99.90
8180;DHT22;4131;48.810;11.892;2023-04-03T01:06:07;2.50;99.90
8180;DHT22;4131;48.810;11.892;2023-04-03T01:08:35;2.50;99.90
8180;DHT22;4131;48.810;11.892;2023-04-03T01:11:04;2.50;99.90
8180;DHT22;4131;48.810;11.892;2023-04-03T01:13:32;2.50;99.90
8180;DHT22;4131;48.810;11.892;2023-04-03T01:16:01;2.50;99.90
8180;DHT22;4131;48.810;11.892;2023-04-03T01:18:31;2.50;99.90
8180;DHT22;4131;48.810;11.892;2023-04-03T01:21:40;2.50;99.90
8180;DHT22;4131;48.810;11.892;2023-04-03T01:24:26;2.50;99.90
8180;DHT22;4131;48.810;11.892;2023-04-03T01:29:24;2.50;99.90
8180;DHT22;4131;48.810;11.892;2023-04-03T01:31:56;2.50;99.90
8180;DHT22;4131;48.810;11.892;2023-04-03T01:34:25;2.50;99.90
8180;DHT22;4131;48.810;11.892;2023-04-03T01:36:53;2.50;99.90
8180;DHT22;4131;48.810;11.892;2023-04-03T01:39:22;2.40;99.90
8180;DHT22;4131;48.810;11.892;2023-04-03T01:44:19;0.20;99.90
8180;DHT22;4131;48.810;11.892;2023-04-03T01:49:16;2.50;99.90
8180;DHT22;4131;48.810;11.892;2023-04-03T01:56:41;2.40;99.90
8180;DHT22;4131;48.810;11.892;2023-04-03T01:59:09;2.40;99.90
8180;DHT22;4131;48.810;11.892;2023-04-03T02:01:38;2.40;99.90
8180;DHT22;4131;48.810;11.892;2023-04-03T02:04:06;2.40;99.90
8180;DHT22;4131;48.810;11.892;2023-04-03T02:06:35;2.40;99.90
8180;DHT22;4131;48.810;11.892;2023-04-03T02:09:04;2.40;99.90
8180;DHT22;4131;48.810;11.892;2023-04-03T02:11:32;2.40;99.90
8180;DHT22;4131;48.810;11.892;2023-04-03T02:14:01;2.40;99.90
8180;DHT22;4131;48.810;11.892;2023-04-03T02:16:29;2.40;99.90
8180;DHT22;4131;48.810;11.892;2023-04-03T02:18:57;2.40;99.90
8180;DHT22;4131;48.810;11.892;2023-04-03T02:23:56;2.30;99.90
8180;DHT22;4131;48.810;11.892;2023-04-03T02:26:24;2.30;99.90
8180;DHT22;4131;48.810;11.892;2023-04-03T02:28:52;2.30;99.90
8180;DHT22;4131;48.810;11.892;2023-04-03T02:33:52;2.30;99.90
8180;DHT22;4131;48.810;11.892;2023-04-03T02:38:49;2.30;99.90
8180;DHT22;4131;48.810;11.892;2023-04-03T02:41:18;2.30;99.90
8180;DHT22;4131;48.810;11.892;2023-04-03T02:48:44;2.30;99.90
8180;DHT22;4131;48.810;11.892;2023-04-03T02:53:41;2.30;99.90
8180;DHT22;4131;48.810;11.892;2023-04-03T02:56:09;2.20;99.90
8180;DHT22;4131;48.810;11.892;2023-04-03T02:58:38;2.30;99.90
8180;DHT22;4131;48.810;11.892;2023-04-03T03:01:07;2.30;99.90
8180;DHT22;4131;48.810;11.892;2023-04-03T03:03:35;2.30;99.90
8180;DHT22;4131;48.810;11.892;2023-04-03T03:06:03;2.20;99.90
8180;DHT22;4131;48.810;11.892;2023-04-03T03:08:32;2.30;99.90
8180;DHT22;4131;48.810;11.892;2023-04-03T03:11:01;2.20;99.90
8180;DHT22;4131;48.810;11.892;2023-04-03T03:13:29;2.30;99.90
8180;DHT22;4131;48.810;11.892;2023-04-03T03:15:59;2.20;99.90
8180;DHT22;4131;48.810;11.892;2023-04-03T03:18:27;2.20;99.90
8180;DHT22;4131;48.810;11.892;2023-04-03T03:20:56;2.20;99.90
8180;DHT22;4131;48.810;11.892;2023-04-03T03:23:26;2.20;99.90
8180;DHT22;4131;48.810;11.892;2023-04-03T03:25:55;2.20;99.90
8180;DHT22;4131;48.810;11.892;2023-04-03T03:28:24;2.10;99.90
8180;DHT22;4131;48.810;11.892;2023-04-03T03:30:52;2.10;99.90
8180;DHT22;4131;48.810;11.892;2023-04-03T03:33:21;2.20;99.90
8180;DHT22;4131;48.810;11.892;2023-04-03T03:38:19;2.10;99.90
8180;DHT22;4131;48.810;11.892;2023-04-03T03:40:47;2.20;99.90
8180;DHT22;4131;48.810;11.892;2023-04-03T03:43:15;2.10;99.90
8180;DHT22;4131;48.810;11.892;2023-04-03T03:45:44;2.10;99.90
8180;DHT22;4131;48.810;11.892;2023-04-03T03:48:12;2.10;99.90
8180;DHT22;4131;48.810;11.892;2023-04-03T03:50:42;2.10;99.90
8180;DHT22;4131;48.810;11.892;2023-04-03T03:55:39;2.10;99.90
8180;DHT22;4131;48.810;11.892;2023-04-03T03:58:07;2.10;99.90
8180;DHT22;4131;48.810;11.892;2023-04-03T04:00:35;2.00;99.90
8180;DHT22;4131;48.810;11.892;2023-04-03T04:03:03;2.00;99.90
8180;DHT22;4131;48.810;11.892;2023-04-03T04:05:31;2.00;99.90
8180;DHT22;4131;48.810;11.892;2023-04-03T04:08:01;2.00;99.90
8180;DHT22;4131;48.810;11.892;2023-04-03T04:10:29;2.00;99.90
8180;DHT22;4131;48.810;11.892;2023-04-03T04:12:57;2.00;99.90
8180;DHT22;4131;48.810;11.892;2023-04-03T04:15:25;2.00;99.90
8180;DHT22;4131;48.810;11.892;2023-04-03T04:17:53;1.90;99.90
8180;DHT22;4131;48.810;11.892;2023-04-03T04:20:22;1.90;99.90
8180;DHT22;4131;48.810;11.892;2023-04-03T04:22:50;1.90;99.90
8180;DHT22;4131;48.810;11.892;2023-04-03T04:25:19;1.90;99.90
8180;DHT22;4131;48.810;11.892;2023-04-03T04:30:16;1.90;99.90
8180;DHT22;4131;48.810;11.892;2023-04-03T04:35:12;1.90;99.90
8180;DHT22;4131;48.810;11.892;2023-04-03T04:37:42;1.90;99.90
8180;DHT22;4131;48.810;11.892;2023-04-03T04:40:11;1.90;99.90
8180;DHT22;4131;48.810;11.892;2023-04-03T04:42:41;1.90;99.90
8180;DHT22;4131;48.810;11.892;2023-04-03T04:45:09;1.90;99.90
8180;DHT22;4131;48.810;11.892;2023-04-03T04:47:37;1.90;99.90
8180;DHT22;4131;48.810;11.892;2023-04-03T04:50:06;1.90;99.90
8180;DHT22;4131;48.810;11.892;2023-04-03T04:52:34;1.90;99.90
8180;DHT22;4131;48.810;11.892;2023-04-03T04:55:03;1.90;99.90
8180;DHT22;4131;48.810;11.892;2023-04-03T04:57:32;1.90;99.90
8180;DHT22;4131;48.810;11.892;2023-04-03T05:00:04;1.90;99.90
8180;DHT22;4131;48.810;11.892;2023-04-03T05:07:31;1.90;99.90
8180;DHT22;4131;48.810;11.892;2023-04-03T05:09:59;1.90;99.90
8180;DHT22;4131;48.810;11.892;2023-04-03T05:12:27;2.00;99.90
8180;DHT22;4131;48.810;11.892;2023-04-03T05:14:55;1.90;99.90
8180;DHT22;4131;48.810;11.892;2023-04-03T05:17:25;2.00;99.90
8180;DHT22;4131;48.810;11.892;2023-04-03T05:19:53;2.00;99.90
8180;DHT22;4131;48.810;11.892;2023-04-03T05:22:21;2.00;99.90
8180;DHT22;4131;48.810;11.892;2023-04-03T05:27:18;2.00;99.90
8180;DHT22;4131;48.810;11.892;2023-04-03T05:29:46;2.00;99.90
8180;DHT22;4131;48.810;11.892;2023-04-03T05:34:44;2.10;99.90
8180;DHT22;4131;48.810;11.892;2023-04-03T05:37:13;2.10;99.90
8180;DHT22;4131;48.810;11.892;2023-04-03T05:39:41;2.20;99.90
8180;DHT22;4131;48.810;11.892;2023-04-03T05:42:09;2.20;99.90
8180;DHT22;4131;48.810;11.892;2023-04-03T05:44:38;2.10;99.90
8180;DHT22;4131;48.810;11.892;2023-04-03T05:47:07;2.20;99.90
8180;DHT22;4131;48.810;11.892;2023-04-03T05:52:16;2.30;99.90
8180;DHT22;4131;48.810;11.892;2023-04-03T05:54:45;2.30;99.90
8180;DHT22;4131;48.810;11.892;2023-04-03T05:57:15;2.40;99.90
8180;DHT22;4131;48.810;11.892;2023-04-03T05:59:44;2.40;99.90
8180;DHT22;4131;48.810;11.892;2023-04-03T06:02:13;2.40;99.90
8180;DHT22;4131;48.810;11.892;2023-04-03T06:04:42;2.40;99.90
8180;DHT22;4131;48.810;11.892;2023-04-03T06:07:13;2.50;99.90
8180;DHT22;4131;48.810;11.892;2023-04-03T06:09:42;2.50;99.90
8180;DHT22;4131;48.810;11.892;2023-04-03T06:14:39;2.60;99.90
8180;DHT22;4131;48.810;11.892;2023-04-03T06:17:07;2.70;99.90
8180;DHT22;4131;48.810;11.892;2023-04-03T06:19:36;2.70;99.90
8180;DHT22;4131;48.810;11.892;2023-04-03T06:24:35;2.80;99.90
8180;DHT22;4131;48.810;11.892;2023-04-03T06:27:04;3.00;99.90
8180;DHT22;4131;48.810;11.892;2023-04-03T06:29:32;3.00;99.90
8180;DHT22;4131;48.810;11.892;2023-04-03T06:32:00;3.00;99.90
8180;DHT22;4131;48.810;11.892;2023-04-03T06:34:28;3.10;99.90
8180;DHT22;4131;48.810;11.892;2023-04-03T06:41:55;3.30;99.90
8180;DHT22;4131;48.810;11.892;2023-04-03T06:44:23;3.80;99.90
8180;DHT22;4131;48.810;11.892;2023-04-03T06:46:51;3.60;99.90
8180;DHT22;4131;48.810;11.892;2023-04-03T06:49:21;3.50;99.90
8180;DHT22;4131;48.810;11.892;2023-04-03T06:54:18;4.00;99.90
8180;DHT22;4131;48.810;11.892;2023-04-03T06:56:46;4.40;99.90
8180;DHT22;4131;48.810;11.892;2023-04-03T06:59:16;4.30;99.90
8180;DHT22;4131;48.810;11.892;2023-04-03T07:01:44;4.40;99.90
8180;DHT22;4131;48.810;11.892;2023-04-03T07:09:10;4.70;99.90
8180;DHT22;4131;48.810;11.892;2023-04-03T07:11:39;4.50;99.90
8180;DHT22;4131;48.810;11.892;2023-04-03T07:14:07;4.40;99.90
8180;DHT22;4131;48.810;11.892;2023-04-03T07:16:37;5.30;99.90
8180;DHT22;4131;48.810;11.892;2023-04-03T07:19:08;4.40;99.90
8180;DHT22;4131;48.810;11.892;2023-04-03T07:21:36;4.40;99.90
8180;DHT22;4131;48.810;11.892;2023-04-03T07:24:05;4.30;99.90
8180;DHT22;4131;48.810;11.892;2023-04-03T07:26:37;4.30;99.90
8180;DHT22;4131;48.810;11.892;2023-04-03T07:29:05;4.40;99.90
8180;DHT22;4131;48.810;11.892;2023-04-03T07:31:33;4.40;99.90
8180;DHT22;4131;48.810;11.892;2023-04-03T07:34:03;4.60;99.90
8180;DHT22;4131;48.810;11.892;2023-04-03T07:36:31;4.40;99.90
8180;DHT22;4131;48.810;11.892;2023-04-03T07:41:28;4.30;99.90
8180;DHT22;4131;48.810;11.892;2023-04-03T07:43:57;4.30;99.90
8180;DHT22;4131;48.810;11.892;2023-04-03T07:46:25;4.30;99.90
8180;DHT22;4131;48.810;11.892;2023-04-03T07:48:53;4.40;99.90
8180;DHT22;4131;48.810;11.892;2023-04-03T07:51:25;4.60;99.90
8180;DHT22;4131;48.810;11.892;2023-04-03T07:53:55;5.60;99.90
8180;DHT22;4131;48.810;11.892;2023-04-03T07:58:51;4.40;99.90
8180;DHT22;4131;48.810;11.892;2023-04-03T08:01:20;4.60;99.90
8180;DHT22;4131;48.810;11.892;2023-04-03T08:03:48;4.70;99.90
8180;DHT22;4131;48.810;11.892;2023-04-03T08:06:17;4.70;99.90
8180;DHT22;4131;48.810;11.892;2023-04-03T08:08:56;4.80;99.90
8180;DHT22;4131;48.810;11.892;2023-04-03T08:13:54;4.80;99.90
8180;DHT22;4131;48.810;11.892;2023-04-03T08:16:23;4.80;99.90
8180;DHT22;4131;48.810;11.892;2023-04-03T08:23:51;4.70;99.90
8180;DHT22;4131;48.810;11.892;2023-04-03T08:26:21;4.90;99.90
8180;DHT22;4131;48.810;11.892;2023-04-03T08:28:49;4.90;99.90
8180;DHT22;4131;48.810;11.892;2023-04-03T08:31:18;5.10;99.90
8180;DHT22;4131;48.810;11.892;2023-04-03T08:33:47;5.10;99.90
8180;DHT22;4131;48.810;11.892;2023-04-03T08:36:18;5.20;99.90
8180;DHT22;4131;48.810;11.892;2023-04-03T08:38:48;5.40;99.90
8180;DHT22;4131;48.810;11.892;2023-04-03T08:41:25;5.50;99.90
8180;DHT22;4131;48.810;11.892;2023-04-03T08:44:21;5.70;99.90
8180;DHT22;4131;48.810;11.892;2023-04-03T08:47:00;5.80;99.90
8180;DHT22;4131;48.810;11.892;2023-04-03T08:49:33;5.70;99.90
8180;DHT22;4131;48.810;11.892;2023-04-03T08:52:07;5.70;99.90
8180;DHT22;4131;48.810;11.892;2023-04-03T08:54:41;5.70;99.90
8180;DHT22;4131;48.810;11.892;2023-04-03T08:57:17;5.70;99.90
8180;DHT22;4131;48.810;11.892;2023-04-03T09:02:24;5.80;99.90
8180;DHT22;4131;48.810;11.892;2023-04-03T09:04:53;5.60;99.90
8180;DHT22;4131;48.810;11.892;2023-04-03T09:07:33;5.80;99.90
8180;DHT22;4131;48.810;11.892;2023-04-03T09:10:03;6.10;99.90
8180;DHT22;4131;48.810;11.892;2023-04-03T09:12:37;6.10;99.90
8180;DHT22;4131;48.810;11.892;2023-04-03T09:15:14;6.20;99.90
8180;DHT22;4131;48.810;11.892;2023-04-03T09:17:59;6.10;99.90
8180;DHT22;4131;48.810;11.892;2023-04-03T09:20:38;6.30;99.90
8180;DHT22;4131;48.810;11.892;2023-04-03T09:23:22;6.30;99.90
8180;DHT22;4131;48.810;11.892;2023-04-03T09:25:58;7.20;99.90
8180;DHT22;4131;48.810;11.892;2023-04-03T09:28:30;8.10;99.90
8180;DHT22;4131;48.810;11.892;2023-04-03T09:31:21;8.10;99.90
8180;DHT22;4131;48.810;11.892;2023-04-03T09:33:52;7.70;99.90
8180;DHT22;4131;48.810;11.892;2023-04-03T09:36:41;7.10;99.90
8180;DHT22;4131;48.810;11.892;2023-04-03T09:39:12;6.80;99.90
8180;DHT22;4131;48.810;11.892;2023-04-03T09:41:41;6.60;99.90
8180;DHT22;4131;48.810;11.892;2023-04-03T09:44:23;6.50;99.90
8180;DHT22;4131;48.810;11.892;2023-04-03T09:46:52;6.40;99.90
8180;DHT22;4131;48.810;11.892;2023-04-03T09:49:20;6.20;99.90
8180;DHT22;4131;48.810;11.892;2023-04-03T09:51:49;6.30;99.90
8180;DHT22;4131;48.810;11.892;2023-04-03T09:54:34;6.30;99.90
8180;DHT22;4131;48.810;11.892;2023-04-03T09:57:09;6.30;99.90
8180;DHT22;4131;48.810;11.892;2023-04-03T09:59:46;6.60;99.90
8180;DHT22;4131;48.810;11.892;2023-04-03T10:02:28;6.70;99.90
8180;DHT22;4131;48.810;11.892;2023-04-03T10:04:58;6.90;99.90
8180;DHT22;4131;48.810;11.892;2023-04-03T10:07:37;6.90;99.90
8180;DHT22;4131;48.810;11.892;2023-04-03T10:10:20;7.10;99.90
8180;DHT22;4131;48.810;11.892;2023-04-03T10:13:04;7.10;99.90
8180;DHT22;4131;48.810;11.892;2023-04-03T10:15:38;7.30;99.90
8180;DHT22;4131;48.810;11.892;2023-04-03T10:18:22;7.50;99.90
8180;DHT22;4131;48.810;11.892;2023-04-03T10:20:58;8.40;99.90
8180;DHT22;4131;48.810;11.892;2023-04-03T10:23:34;9.80;99.90
8180;DHT22;4131;48.810;11.892;2023-04-03T10:26:12;10.30;99.90
8180;DHT22;4131;48.810;11.892;2023-04-03T10:28:47;9.90;99.90
8180;DHT22;4131;48.810;11.892;2023-04-03T10:31:23;9.50;99.90
8180;DHT22;4131;48.810;11.892;2023-04-03T10:33:59;9.10;99.90
8180;DHT22;4131;48.810;11.892;2023-04-03T10:36:37;8.90;99.90
8180;DHT22;4131;48.810;11.892;2023-04-03T10:39:17;9.10;99.90
8180;DHT22;4131;48.810;11.892;2023-04-03T10:41:56;9.40;99.90
8180;DHT22;4131;48.810;11.892;2023-04-03T10:44:55;10.20;99.90
8180;DHT22;4131;48.810;11.892;2023-04-03T10:47:34;10.40;99.90
8180;DHT22;4131;48.810;11.892;2023-04-03T10:50:21;9.40;99.90
8180;DHT22;4131;48.810;11.892;2023-04-03T10:52:57;8.90;99.90
8180;DHT22;4131;48.810;11.892;2023-04-03T10:55:35;8.40;99.90
8180;DHT22;4131;48.810;11.892;2023-04-03T10:58:05;8.30;99.90
8180;DHT22;4131;48.810;11.892;2023-04-03T11:00:39;9.40;99.90
8180;DHT22;4131;48.810;11.892;2023-04-03T11:03:12;11.00;99.90
8180;DHT22;4131;48.810;11.892;2023-04-03T11:05:44;12.50;99.90
8180;DHT22;4131;48.810;11.892;2023-04-03T11:08:21;12.50;99.90
8180;DHT22;4131;48.810;11.892;2023-04-03T11:10:56;13.10;99.90
8180;DHT22;4131;48.810;11.892;2023-04-03T11:13:32;13.30;99.90
8180;DHT22;4131;48.810;11.892;2023-04-03T11:16:02;13.50;99.90
8180;DHT22;4131;48.810;11.892;2023-04-03T11:18:37;13.40;99.90
8180;DHT22;4131;48.810;11.892;2023-04-03T11:21:16;13.70;99.90
8180;DHT22;4131;48.810;11.892;2023-04-03T11:23:48;13.70;99.90
8180;DHT22;4131;48.810;11.892;2023-04-03T11:26:19;14.10;99.90
8180;DHT22;4131;48.810;11.892;2023-04-03T11:28:53;13.50;99.90
8180;DHT22;4131;48.810;11.892;2023-04-03T11:31:33;13.40;99.90
8180;DHT22;4131;48.810;11.892;2023-04-03T11:34:20;13.40;99.90
8180;DHT22;4131;48.810;11.892;2023-04-03T11:36:53;14.30;99.90
8180;DHT22;4131;48.810;11.892;2023-04-03T11:39:24;14.70;99.90
8180;DHT22;4131;48.810;11.892;2023-04-03T11:41:54;13.90;99.90
8180;DHT22;4131;48.810;11.892;2023-04-03T11:44:37;13.50;99.90
8180;DHT22;4131;48.810;11.892;2023-04-03T11:47:06;12.80;99.90
8180;DHT22;4131;48.810;11.892;2023-04-03T11:49:59;13.70;99.90
8180;DHT22;4131;48.810;11.892;2023-04-03T11:52:57;13.60;99.90
8180;DHT22;4131;48.810;11.892;2023-04-03T11:55:42;11.90;99.90
8180;DHT22;4131;48.810;11.892;2023-04-03T11:58:15;10.70;99.90
8180;DHT22;4131;48.810;11.892;2023-04-03T12:01:08;11.90;99.90
8180;DHT22;4131;48.810;11.892;2023-04-03T12:03:57;13.20;99.90
8180;DHT22;4131;48.810;11.892;2023-04-03T12:09:59;14.40;99.90
8180;DHT22;4131;48.810;11.892;2023-04-03T12:12:36;14.60;99.90
8180;DHT22;4131;48.810;11.892;2023-04-03T12:15:44;14.80;99.90
8180;DHT22;4131;48.810;11.892;2023-04-03T12:18:41;14.70;99.90
8180;DHT22;4131;48.810;11.892;2023-04-03T12:21:10;16.10;99.90
8180;DHT22;4131;48.810;11.892;2023-04-03T12:24:00;15.00;99.90
8180;DHT22;4131;48.810;11.892;2023-04-03T12:26:35;14.30;99.90
8180;DHT22;4131;48.810;11.892;2023-04-03T12:29:17;15.10;99.90
8180;DHT22;4131;48.810;11.892;2023-04-03T12:31:58;15.70;99.90
8180;DHT22;4131;48.810;11.892;2023-04-03T12:34:50;16.20;99.90
8180;DHT22;4131;48.810;11.892;2023-04-03T12:37:40;13.80;99.90
8180;DHT22;4131;48.810;11.892;2023-04-03T12:40:17;12.00;99.90
8180;DHT22;4131;48.810;11.892;2023-04-03T12:43:13;12.20;99.90
8180;DHT22;4131;48.810;11.892;2023-04-03T12:45:46;14.10;99.90
8180;DHT22;4131;48.810;11.892;2023-04-03T12:48:17;14.30;99.90
8180;DHT22;4131;48.810;11.892;2023-04-03T12:50:47;13.00;99.90
8180;DHT22;4131;48.810;11.892;2023-04-03T12:53:18;12.70;99.90
8180;DHT22;4131;48.810;11.892;2023-04-03T12:55:54;12.20;99.90
8180;DHT22;4131;48.810;11.892;2023-04-03T12:58:24;11.40;99.90
8180;DHT22;4131;48.810;11.892;2023-04-03T13:01:02;11.00;99.90
8180;DHT22;4131;48.810;11.892;2023-04-03T13:06:01;11.50;99.90
8180;DHT22;4131;48.810;11.892;2023-04-03T13:08:30;10.70;99.90
8180;DHT22;4131;48.810;11.892;2023-04-03T13:11:03;10.00;99.90
8180;DHT22;4131;48.810;11.892;2023-04-03T13:13:33;10.20;99.90
8180;DHT22;4131;48.810;11.892;2023-04-03T13:16:08;10.30;99.90
8180;DHT22;4131;48.810;11.892;2023-04-03T13:18:38;11.90;99.90
8180;DHT22;4131;48.810;11.892;2023-04-03T13:21:11;13.10;99.90
8180;DHT22;4131;48.810;11.892;2023-04-03T13:23:45;13.10;99.90
8180;DHT22;4131;48.810;11.892;2023-04-03T13:26:15;11.20;99.90
8180;DHT22;4131;48.810;11.892;2023-04-03T13:28:46;9.90;99.90
8180;DHT22;4131;48.810;11.892;2023-04-03T13:31:20;9.50;99.90
8180;DHT22;4131;48.810;11.892;2023-04-03T13:33:57;10.60;99.90
8180;DHT22;4131;48.810;11.892;2023-04-03T13:36:29;11.20;99.90
8180;DHT22;4131;48.810;11.892;2023-04-03T13:38:59;11.60;99.90
8180;DHT22;4131;48.810;11.892;2023-04-03T13:41:30;10.90;99.90
8180;DHT22;4131;48.810;11.892;2023-04-03T13:44:24;9.90;99.90
8180;DHT22;4131;48.810;11.892;2023-04-03T13:46:56;9.60;99.90
8180;DHT22;4131;48.810;11.892;2023-04-03T13:49:30;10.30;99.90
8180;DHT22;4131;48.810;11.892;2023-04-03T13:54:36;10.60;99.90
8180;DHT22;4131;48.810;11.892;2023-04-03T13:57:12;10.80;99.90
8180;DHT22;4131;48.810;11.892;2023-04-03T13:59:42;9.90;99.90
8180;DHT22;4131;48.810;11.892;2023-04-03T14:02:15;9.90;99.90
8180;DHT22;4131;48.810;11.892;2023-04-03T14:04:49;10.20;99.90
8180;DHT22;4131;48.810;11.892;2023-04-03T14:07:19;10.30;99.90
8180;DHT22;4131;48.810;11.892;2023-04-03T14:09:48;10.20;99.90
8180;DHT22;4131;48.810;11.892;2023-04-03T14:12:19;10.00;99.90
8180;DHT22;4131;48.810;11.892;2023-04-03T14:15:00;10.40;99.90
8180;DHT22;4131;48.810;11.892;2023-04-03T14:19:58;11.10;99.90
8180;DHT22;4131;48.810;11.892;2023-04-03T14:22:30;10.20;99.90
8180;DHT22;4131;48.810;11.892;2023-04-03T14:24:58;9.50;99.90
8180;DHT22;4131;48.810;11.892;2023-04-03T14:27:29;8.80;99.90
8180;DHT22;4131;48.810;11.892;2023-04-03T14:30:00;8.70;99.90
8180;DHT22;4131;48.810;11.892;2023-04-03T14:34:59;9.20;99.90
8180;DHT22;4131;48.810;11.892;2023-04-03T14:37:29;8.80;99.90
8180;DHT22;4131;48.810;11.892;2023-04-03T14:40:00;9.10;99.90
8180;DHT22;4131;48.810;11.892;2023-04-03T14:42:31;9.20;99.90
8180;DHT22;4131;48.810;11.892;2023-04-03T14:45:06;9.10;99.90
8180;DHT22;4131;48.810;11.892;2023-04-03T14:47:37;8.40;99.90
8180;DHT22;4131;48.810;11.892;2023-04-03T14:50:11;8.20;99.90
8180;DHT22;4131;48.810;11.892;2023-04-03T14:52:41;7.50;99.90
8180;DHT22;4131;48.810;11.892;2023-04-03T14:55:12;7.30;99.90
8180;DHT22;4131;48.810;11.892;2023-04-03T14:57:41;7.20;99.90
8180;DHT22;4131;48.810;11.892;2023-04-03T15:00:16;7.10;99.90
8180;DHT22;4131;48.810;11.892;2023-04-03T15:02:45;7.00;99.90
8180;DHT22;4131;48.810;11.892;2023-04-03T15:05:15;7.10;99.90
8180;DHT22;4131;48.810;11.892;2023-04-03T15:07:47;7.00;99.90
8180;DHT22;4131;48.810;11.892;2023-04-03T15:10:18;7.10;99.90
8180;DHT22;4131;48.810;11.892;2023-04-03T15:12:47;9.60;99.90
8180;DHT22;4131;48.810;11.892;2023-04-03T15:15:19;7.30;99.90
8180;DHT22;4131;48.810;11.892;2023-04-03T15:17:51;7.30;99.90
8180;DHT22;4131;48.810;11.892;2023-04-03T15:20:23;7.30;99.90
8180;DHT22;4131;48.810;11.892;2023-04-03T15:22:51;7.50;99.90
8180;DHT22;4131;48.810;11.892;2023-04-03T15:27:47;7.80;99.90
8180;DHT22;4131;48.810;11.892;2023-04-03T15:30:18;8.10;99.90
8180;DHT22;4131;48.810;11.892;2023-04-03T15:32:46;8.00;99.90
8180;DHT22;4131;48.810;11.892;2023-04-03T15:35:15;7.80;99.90
8180;DHT22;4131;48.810;11.892;2023-04-03T15:37:43;7.10;99.90
8180;DHT22;4131;48.810;11.892;2023-04-03T15:40:11;6.90;99.90
8180;DHT22;4131;48.810;11.892;2023-04-03T15:42:40;6.60;99.90
8180;DHT22;4131;48.810;11.892;2023-04-03T15:45:08;6.60;99.90
8180;DHT22;4131;48.810;11.892;2023-04-03T15:47:38;6.30;99.90
8180;DHT22;4131;48.810;11.892;2023-04-03T15:50:07;6.10;99.90
8180;DHT22;4131;48.810;11.892;2023-04-03T15:52:36;6.00;99.90
8180;DHT22;4131;48.810;11.892;2023-04-03T15:55:04;6.00;99.90
8180;DHT22;4131;48.810;11.892;2023-04-03T16:02:29;5.90;99.90
8180;DHT22;4131;48.810;11.892;2023-04-03T16:04:59;5.80;99.90
8180;DHT22;4131;48.810;11.892;2023-04-03T16:07:27;5.70;99.90
8180;DHT22;4131;48.810;11.892;2023-04-03T16:09:56;5.80;99.90
8180;DHT22;4131;48.810;11.892;2023-04-03T16:12:24;5.80;99.90
8180;DHT22;4131;48.810;11.892;2023-04-03T16:14:52;5.50;99.90
8180;DHT22;4131;48.810;11.892;2023-04-03T16:17:20;5.50;99.90
8180;DHT22;4131;48.810;11.892;2023-04-03T16:19:48;5.60;99.90
8180;DHT22;4131;48.810;11.892;2023-04-03T16:22:18;5.50;99.90
8180;DHT22;4131;48.810;11.892;2023-04-03T16:29:42;5.20;99.90
8180;DHT22;4131;48.810;11.892;2023-04-03T16:32:11;5.10;99.90
8180;DHT22;4131;48.810;11.892;2023-04-03T16:34:39;4.90;99.90
8180;DHT22;4131;48.810;11.892;2023-04-03T16:39:38;4.60;99.90
8180;DHT22;4131;48.810;11.892;2023-04-03T16:42:06;4.50;99.90
8180;DHT22;4131;48.810;11.892;2023-04-03T16:47:04;4.40;99.90
8180;DHT22;4131;48.810;11.892;2023-04-03T16:49:32;4.50;99.90
8180;DHT22;4131;48.810;11.892;2023-04-03T16:52:01;4.40;99.90
8180;DHT22;4131;48.810;11.892;2023-04-03T16:54:30;4.40;99.90
8180;DHT22;4131;48.810;11.892;2023-04-03T16:57:00;4.40;99.90
8180;DHT22;4131;48.810;11.892;2023-04-03T17:01:56;4.20;99.90
8180;DHT22;4131;48.810;11.892;2023-04-03T17:04:24;4.20;99.90
8180;DHT22;4131;48.810;11.892;2023-04-03T17:06:53;4.00;99.90
8180;DHT22;4131;48.810;11.892;2023-04-03T17:11:52;3.90;99.90
8180;DHT22;4131;48.810;11.892;2023-04-03T17:14:21;3.80;99.90
8180;DHT22;4131;48.810;11.892;2023-04-03T17:16:50;3.70;99.90
8180;DHT22;4131;48.810;11.892;2023-04-03T17:19:18;3.60;99.90
8180;DHT22;4131;48.810;11.892;2023-04-03T17:21:46;3.60;99.90
8180;DHT22;4131;48.810;11.892;2023-04-03T17:24:14;3.50;99.90
8180;DHT22;4131;48.810;11.892;2023-04-03T17:26:45;3.40;99.90
8180;DHT22;4131;48.810;11.892;2023-04-03T17:29:13;3.40;99.90
8180;DHT22;4131;48.810;11.892;2023-04-03T17:31:44;3.30;99.90
8180;DHT22;4131;48.810;11.892;2023-04-03T17:34:12;3.20;99.90
8180;DHT22;4131;48.810;11.892;2023-04-03T17:36:40;3.20;99.90
8180;DHT22;4131;48.810;11.892;2023-04-03T17:39:09;3.00;99.90
8180;DHT22;4131;48.810;11.892;2023-04-03T17:41:37;3.10;99.90
8180;DHT22;4131;48.810;11.892;2023-04-03T17:44:05;3.00;99.90
8180;DHT22;4131;48.810;11.892;2023-04-03T17:46:33;2.90;99.90
8180;DHT22;4131;48.810;11.892;2023-04-03T17:49:03;2.90;99.90
8180;DHT22;4131;48.810;11.892;2023-04-03T17:51:34;2.80;99.90
8180;DHT22;4131;48.810;11.892;2023-04-03T17:54:03;4.70;99.90
8180;DHT22;4131;48.810;11.892;2023-04-03T17:59:00;2.70;99.90
8180;DHT22;4131;48.810;11.892;2023-04-03T18:01:29;2.60;99.90
8180;DHT22;4131;48.810;11.892;2023-04-03T18:04:00;2.50;99.90
8180;DHT22;4131;48.810;11.892;2023-04-03T18:06:32;2.40;99.90
8180;DHT22;4131;48.810;11.892;2023-04-03T18:09:03;2.40;99.90
8180;DHT22;4131;48.810;11.892;2023-04-03T18:11:33;2.30;99.90
8180;DHT22;4131;48.810;11.892;2023-04-03T18:14:02;2.40;99.90
8180;DHT22;4131;48.810;11.892;2023-04-03T18:16:33;2.20;99.90
8180;DHT22;4131;48.810;11.892;2023-04-03T18:19:02;2.20;99.90
8180;DHT22;4131;48.810;11.892;2023-04-03T18:21:49;2.10;99.90
8180;DHT22;4131;48.810;11.892;2023-04-03T18:24:19;2.10;99.90
8180;DHT22;4131;48.810;11.892;2023-04-03T18:26:53;2.00;99.90
8180;DHT22;4131;48.810;11.892;2023-04-03T18:29:22;2.00;99.90